September 26, 2022

Time Code Weather Temp. Visibility Ceiling Wind METAR/SPECI
19:30
M
10 °C 10 km+ 1,700 ft 310° 310° 12 kt METAR EIKN 261830Z 31012KT 9999 -SHRA SCT012 BKN017 10/09 Q1011 TEMPO 3000 BKN008
19:00
M
10 °C 10 km+ 1,400 ft 310° 310° 11 kt METAR EIKN 261800Z 31011KT 9999 SCT009 BKN014 10/09 Q1011 TEMPO 3000 BKN008
18:30
M
11 °C 9 km 1,800 ft 310° 310° 10 kt METAR EIKN 261730Z 31010KT 280V360 9000 -SHRA SCT014 BKN018 11/07 Q1011 NOSIG
18:00
M
11 °C 10 km+ 2,500 ft 310° 310° 17 - 30 kt METAR EIKN 261700Z 31017G30KT 9999 -SHRA SCT015 SCT019 BKN025 11/07 Q1011 NOSIG
17:30
M
12 °C 10 km+ 2,800 ft 320° 320° 13 kt METAR EIKN 261630Z 32013KT 290V360 9999 FEW016 BKN028 12/06 Q1011 NOSIG
17:00
M
12 °C 10 km+ 2,700 ft 320° 320° 14 kt METAR EIKN 261600Z 32014KT 9999 FEW017 BKN027 12/06 Q1011 NOSIG
16:30
V
13 °C 10 km+ - 310° 310° 16 - 26 kt METAR EIKN 261530Z 31016G26KT 280V350 9999 FEW017 SCT032 13/07 Q1010 NOSIG
16:00
V
12 °C 10 km+ 3,200 ft 310° 310° 13 kt METAR EIKN 261500Z 31013KT 280V350 9999 VCSH FEW017 SCT021 BKN032 12/06 Q1011 NOSIG
15:30
V
12 °C 10 km+ 10,000 ft 310° 310° 15 kt METAR EIKN 261430Z 31015KT 280V340 9999 FEW018 SCT032 BKN100 12/06 Q1011 NOSIG
15:00
M
11 °C 10 km+ 2,500 ft 320° 320° 18 - 28 kt METAR EIKN 261400Z 32018G28KT 290V350 9999 -SHRA FEW016 BKN025 11/06 Q1011 NOSIG
14:30
M
11 °C 10 km+ 2,600 ft 310° 310° 17 kt METAR EIKN 261330Z 31017KT 280V350 9999 -SHRA FEW016 SCT020 BKN026 11/07 Q1011 NOSIG
14:00
M
11 °C 10 km+ 2,400 ft 330° 330° 17 - 28 kt METAR EIKN 261300Z 33017G28KT 290V360 9999 -SHRA FEW014 SCT019 BKN024 11/07 Q1011 NOSIG
13:30
V
12 °C 10 km+ 3,200 ft 320° 320° 16 - 26 kt METAR EIKN 261230Z 32016G26KT 290V360 9999 VCSH FEW016 BKN032 BKN120 12/06 Q1011 NOSIG
13:00
M
12 °C 10 km+ 2,700 ft 320° 320° 13 kt METAR EIKN 261200Z 32013KT 290V350 9999 -SHRA FEW016 BKN027 BKN100 12/06 Q1011 NOSIG
12:30
V
12 °C 10 km+ 3,400 ft 310° 310° 15 - 26 kt METAR EIKN 261130Z 31015G26KT 290V360 9999 VCSH FEW017 SCT026 BKN034 12/06 Q1011 NOSIG
12:00
V
11 °C 10 km+ 3,500 ft 310° 310° 13 kt METAR EIKN 261100Z 31013KT 270V330 9999 FEW016 BKN035 11/07 Q1011 NOSIG
11:30
V
11 °C 10 km+ 3,300 ft 320° 320° 14 - 26 kt METAR EIKN 261030Z 32014G26KT 290V360 9999 FEW016 BKN033 11/06 Q1011 NOSIG
11:00
M
10 °C 10 km+ 2,400 ft 320° 320° 18 - 33 kt METAR EIKN 261000Z 32018G33KT 290V010 9999 FEW016 BKN024 10/07 Q1011 NOSIG
10:30
M
11 °C 5 km 2,800 ft 330° 330° 17 - 30 kt METAR EIKN 260930Z 33017G30KT 290V360 5000 -SHRA FEW016 BKN028 11/07 Q1011 NOSIG
10:00
V
10 °C 10 km+ - 330° 330° 17 kt METAR EIKN 260900Z 33017KT 290V360 9999 FEW016 10/08 Q1010 NOSIG
09:30
M
10 °C 10 km+ 1,800 ft 330° 330° 16 - 28 kt METAR EIKN 260830Z 33016G28KT 9999 BKN018 BKN035 10/08 Q1010 NOSIG
09:00
V
10 °C 10 km+ 3,500 ft 330° 330° 16 - 27 kt METAR EIKN 260800Z 33016G27KT 9999 FEW020 BKN035 10/07 Q1010 NOSIG
08:30
V
10 °C 9 km 3,800 ft 330° 330° 16 kt METAR EIKN 260730Z 33016KT 9000 FEW020 BKN038 10/07 Q1010 NOSIG
08:00
V
10 °C 10 km+ 4,000 ft 330° 330° 19 - 30 kt METAR EIKN 260700Z 33019G30KT 9999 FEW020 BKN040 10/05 Q1009 NOSIG
07:30
V
10 °C 10 km+ 4,200 ft 330° 330° 18 kt METAR EIKN 260630Z 33018KT 9999 FEW020 BKN042 10/05 Q1009 NOSIG
07:00
V
10 °C 10 km+ 3,800 ft 330° 330° 22 - 35 kt METAR EIKN 260600Z 33022G35KT 9999 FEW020 BKN038 10/07 Q1008 NOSIG
06:30
V
10 °C 10 km+ 4,000 ft 330° 330° 25 - 38 kt METAR EIKN 260530Z 33025G38KT 310V010 9999 FEW020 BKN040 10/06 Q1008 NOSIG
06:00
V
10 °C 10 km+ 4,500 ft 330° 330° 22 - 33 kt METAR EIKN 260500Z 33022G33KT 9999 FEW020 BKN045 10/06 Q1008 NOSIG
05:30
V
10 °C 10 km+ 4,400 ft 320° 320° 18 kt METAR EIKN 260430Z 32018KT 9999 FEW020 BKN044 10/07 Q1008 NOSIG
05:00
V
10 °C 10 km+ 5,000 ft 320° 320° 20 kt METAR EIKN 260400Z 32020KT 290V360 9999 FEW020 SCT032 BKN050 10/07 Q1008 NOSIG

September 25, 2022

Time Code Weather Temp. Visibility Ceiling Wind METAR/SPECI
18:00
M
12 °C 10 km+ 1,100 ft 260° 260° 18 kt METAR EIKN 251700Z 26018KT 9999 BKN011 BKN020 12/11 Q1015 TEMPO 4000 BKN008
17:30
M
12 °C 10 km+ 1,700 ft 250° 250° 13 kt METAR EIKN 251630Z 25013KT 220V290 9999 FEW012 BKN017 BKN032 12/10 Q1016 NOSIG
17:00
M
13 °C 10 km+ 2,400 ft 270° 270° 16 kt METAR EIKN 251600Z 27016KT 9999 FEW014 BKN024 BKN032 13/09 Q1017 NOSIG
16:30
M
13 °C 10 km+ 2,700 ft 260° 260° 14 kt METAR EIKN 251530Z 26014KT 230V290 9999 FEW014 BKN027 13/10 Q1017 NOSIG
16:00
V
13 °C 10 km+ 3,200 ft 260° 260° 11 kt METAR EIKN 251500Z 26011KT 230V290 9999 FEW008 SCT015 BKN032 13/11 Q1018 NOSIG
15:30
I
12 °C 8 km 700 ft 290° 290° 15 kt METAR EIKN 251430Z 29015KT 8000 -RA BKN007 BKN022 12/11 Q1018 NOSIG
15:00
M
13 °C 6 km 1,600 ft 270° 270° 11 kt METAR EIKN 251400Z 27011KT 6000 -RA FEW007 BKN016 BKN026 13/11 Q1019 NOSIG
14:30
I
13 °C 6 km 800 ft 280° 280° 10 kt METAR EIKN 251330Z 28010KT 6000 -RA BKN008 BKN018 13/12 Q1019 TEMPO BKN010
14:00
I
13 °C 10 km+ 600 ft 270° 270° 10 kt METAR EIKN 251300Z 27010KT 9999 BKN006 BKN018 13/12 Q1020 TEMPO BKN010
13:30
I
13 °C 6 km 500 ft 270° 270° 12 kt METAR EIKN 251230Z 27012KT 6000 BKN005 BKN018 13/12 Q1020 TEMPO 8000 BKN010
13:00
M
13 °C 8 km 1,200 ft 260° 260° 14 kt METAR EIKN 251200Z 26014KT 8000 -RA FEW008 BKN012 BKN025 13/10 Q1020 NOSIG
12:30
M
13 °C 10 km+ 1,300 ft 250° 250° 10 kt METAR EIKN 251130Z 25010KT 9999 FEW008 BKN013 BKN025 13/10 Q1021 NOSIG
12:00
M
13 °C 10 km+ 1,500 ft 250° 250° 9 kt METAR EIKN 251100Z 25009KT 9999 FEW008 BKN015 BKN025 13/10 Q1021 NOSIG
11:30
V
12 °C 10 km+ 6,000 ft 260° 260° 9 kt METAR EIKN 251030Z 26009KT 220V280 9999 FEW006 BKN060 BKN220 12/10 Q1022 NOSIG
11:00
I
11 °C 10 km+ 600 ft 260° 260° 8 kt METAR EIKN 251000Z 26008KT 9999 BKN006 BKN022 11/10 Q1022 TEMPO BKN012
10:30
I
11 °C 8 km 800 ft 260° 260° 9 kt METAR EIKN 250930Z 26009KT 8000 -RA BKN008 BKN025 11/10 Q1022 NOSIG
10:00
M
11 °C 9 km 1,200 ft 250° 250° 6 kt METAR EIKN 250900Z 25006KT 9000 -RA BKN012 BKN026 11/10 Q1023 NOSIG
09:30
M
10 °C 10 km+ 1,700 ft 270° 270° 7 kt METAR EIKN 250830Z 27007KT 9999 BKN017 BKN029 10/09 Q1023 NOSIG
09:00
M
10 °C 10 km+ 2,700 ft 250° 250° 6 kt METAR EIKN 250800Z 25006KT 9999 FEW012 OVC027 10/09 Q1023 NOSIG
08:30
M
10 °C 10 km+ 2,800 ft 240° 240° 4 kt METAR EIKN 250730Z 24004KT 9999 FEW012 BKN028 10/08 Q1023 NOSIG
08:00
M
9 °C 10 km+ 2,800 ft 250° 250° 6 kt METAR EIKN 250700Z 25006KT 9999 FEW015 BKN028 09/08 Q1023 NOSIG
07:30
M
9 °C 10 km+ 2,800 ft 250° 250° 5 kt METAR EIKN 250630Z 25005KT 9999 FEW015 BKN028 09/08 Q1023 NOSIG
07:00
V
10 °C 10 km+ 3,000 ft 290° 290° 7 kt METAR EIKN 250600Z 29007KT 9999 FEW015 BKN030 10/08 Q1024 NOSIG
06:30
V
9 °C 10 km+ 3,200 ft 250° 250° 4 kt METAR EIKN 250530Z 25004KT 9999 FEW015 BKN032 09/08 Q1024 NOSIG
06:00
V
10 °C 10 km+ 3,200 ft 270° 270° 6 kt METAR EIKN 250500Z 27006KT 9999 FEW015 BKN032 10/08 Q1024 NOSIG
Older data

We and third parties follow your internet behavior on our website with cookies. If you continue, we assume you agree with our cookie policy. Learn more